sensor_id;sensor_type;location;lat;lon;timestamp;pressure;altitude;pressure_sealevel;temperature;humidity
11936;BME280;6027;48.576;9.180;2022-08-27T00:00:19;96687.03;;;18.51;100.00
11936;BME280;6027;48.576;9.180;2022-08-27T00:02:46;96679.25;;;18.61;100.00
11936;BME280;6027;48.576;9.180;2022-08-27T00:05:15;96684.38;;;18.63;100.00
11936;BME280;6027;48.576;9.180;2022-08-27T00:07:42;96689.00;;;18.68;100.00
11936;BME280;6027;48.576;9.180;2022-08-27T00:10:14;96684.22;;;18.70;100.00
11936;BME280;6027;48.576;9.180;2022-08-27T00:12:40;96684.34;;;18.75;100.00
11936;BME280;6027;48.576;9.180;2022-08-27T00:15:06;96688.06;;;18.74;100.00
11936;BME280;6027;48.576;9.180;2022-08-27T00:17:33;96681.66;;;18.75;100.00
11936;BME280;6027;48.576;9.180;2022-08-27T00:19:59;96685.38;;;18.74;100.00
11936;BME280;6027;48.576;9.180;2022-08-27T00:22:24;96679.09;;;18.68;100.00
11936;BME280;6027;48.576;9.180;2022-08-27T00:24:50;96686.34;;;18.68;100.00
11936;BME280;6027;48.576;9.180;2022-08-27T00:27:16;96676.75;;;18.72;100.00
11936;BME280;6027;48.576;9.180;2022-08-27T00:29:42;96689.34;;;18.71;100.00
11936;BME280;6027;48.576;9.180;2022-08-27T00:32:07;96682.47;;;18.75;100.00
11936;BME280;6027;48.576;9.180;2022-08-27T00:34:33;96684.22;;;18.81;100.00
11936;BME280;6027;48.576;9.180;2022-08-27T00:36:59;96689.81;;;18.80;100.00
11936;BME280;6027;48.576;9.180;2022-08-27T00:39:24;96696.00;;;18.80;100.00
11936;BME280;6027;48.576;9.180;2022-08-27T00:41:50;96688.66;;;18.76;100.00
11936;BME280;6027;48.576;9.180;2022-08-27T00:44:15;96689.56;;;18.81;100.00
11936;BME280;6027;48.576;9.180;2022-08-27T00:46:53;96688.75;;;18.81;100.00
11936;BME280;6027;48.576;9.180;2022-08-27T00:49:24;96688.06;;;18.85;100.00
11936;BME280;6027;48.576;9.180;2022-08-27T00:51:55;96686.66;;;18.83;100.00
11936;BME280;6027;48.576;9.180;2022-08-27T00:54:21;96681.38;;;18.88;100.00
11936;BME280;6027;48.576;9.180;2022-08-27T00:56:47;96683.00;;;18.89;100.00
11936;BME280;6027;48.576;9.180;2022-08-27T00:59:14;96682.28;;;18.93;100.00
11936;BME280;6027;48.576;9.180;2022-08-27T01:01:42;96676.91;;;18.93;100.00
11936;BME280;6027;48.576;9.180;2022-08-27T01:04:27;96680.66;;;18.92;100.00
11936;BME280;6027;48.576;9.180;2022-08-27T01:06:54;96675.19;;;18.87;100.00
11936;BME280;6027;48.576;9.180;2022-08-27T01:09:20;96664.47;;;18.87;100.00
11936;BME280;6027;48.576;9.180;2022-08-27T01:11:46;96669.75;;;18.82;100.00
11936;BME280;6027;48.576;9.180;2022-08-27T01:14:12;96665.19;;;18.83;100.00
11936;BME280;6027;48.576;9.180;2022-08-27T01:16:41;96661.59;;;18.77;100.00
11936;BME280;6027;48.576;9.180;2022-08-27T01:19:21;96665.91;;;18.78;100.00
11936;BME280;6027;48.576;9.180;2022-08-27T01:21:55;96662.06;;;18.74;100.00
11936;BME280;6027;48.576;9.180;2022-08-27T01:24:30;96666.03;;;18.72;100.00
11936;BME280;6027;48.576;9.180;2022-08-27T01:26:58;96659.03;;;18.71;100.00
11936;BME280;6027;48.576;9.180;2022-08-27T01:29:24;96659.97;;;18.76;100.00
11936;BME280;6027;48.576;9.180;2022-08-27T01:31:49;96659.03;;;18.71;100.00
11936;BME280;6027;48.576;9.180;2022-08-27T01:34:15;96654.25;;;18.73;100.00
11936;BME280;6027;48.576;9.180;2022-08-27T01:36:40;96658.09;;;18.77;100.00
11936;BME280;6027;48.576;9.180;2022-08-27T01:39:06;96654.16;;;18.68;100.00
11936;BME280;6027;48.576;9.180;2022-08-27T01:41:32;96650.19;;;18.58;100.00
11936;BME280;6027;48.576;9.180;2022-08-27T01:43:58;96649.53;;;18.63;100.00
11936;BME280;6027;48.576;9.180;2022-08-27T01:46:25;96649.59;;;18.68;100.00
11936;BME280;6027;48.576;9.180;2022-08-27T01:48:51;96648.25;;;18.66;100.00
11936;BME280;6027;48.576;9.180;2022-08-27T01:51:17;96642.94;;;18.71;100.00
11936;BME280;6027;48.576;9.180;2022-08-27T01:53:44;96653.78;;;18.76;100.00
11936;BME280;6027;48.576;9.180;2022-08-27T01:56:09;96651.91;;;18.76;100.00
11936;BME280;6027;48.576;9.180;2022-08-27T01:58:37;96643.41;;;18.79;100.00
11936;BME280;6027;48.576;9.180;2022-08-27T02:01:08;96640.13;;;18.77;100.00
11936;BME280;6027;48.576;9.180;2022-08-27T02:03:36;96645.88;;;18.69;100.00
11936;BME280;6027;48.576;9.180;2022-08-27T02:06:09;96638.75;;;18.75;100.00
11936;BME280;6027;48.576;9.180;2022-08-27T02:08:35;96636.06;;;18.75;100.00
11936;BME280;6027;48.576;9.180;2022-08-27T02:11:02;96636.63;;;18.77;100.00
11936;BME280;6027;48.576;9.180;2022-08-27T02:13:28;96640.13;;;18.77;100.00
11936;BME280;6027;48.576;9.180;2022-08-27T02:15:53;96636.75;;;18.82;100.00
11936;BME280;6027;48.576;9.180;2022-08-27T02:18:19;96631.16;;;18.83;100.00
11936;BME280;6027;48.576;9.180;2022-08-27T02:20:46;96629.34;;;18.89;100.00
11936;BME280;6027;48.576;9.180;2022-08-27T02:23:12;96630.97;;;18.90;100.00
11936;BME280;6027;48.576;9.180;2022-08-27T02:25:38;96629.53;;;18.99;100.00
11936;BME280;6027;48.576;9.180;2022-08-27T02:28:05;96624.75;;;19.01;100.00
11936;BME280;6027;48.576;9.180;2022-08-27T02:30:32;96622.59;;;18.86;100.00
11936;BME280;6027;48.576;9.180;2022-08-27T02:33:02;96627.06;;;18.81;100.00
11936;BME280;6027;48.576;9.180;2022-08-27T02:35:30;96616.16;;;18.87;100.00
11936;BME280;6027;48.576;9.180;2022-08-27T02:37:57;96616.91;;;18.83;100.00
11936;BME280;6027;48.576;9.180;2022-08-27T02:40:23;96626.03;;;18.82;100.00
11936;BME280;6027;48.576;9.180;2022-08-27T02:42:49;96626.50;;;18.79;100.00
11936;BME280;6027;48.576;9.180;2022-08-27T02:45:16;96633.00;;;18.83;100.00
11936;BME280;6027;48.576;9.180;2022-08-27T02:47:42;96634.72;;;18.89;100.00
11936;BME280;6027;48.576;9.180;2022-08-27T02:50:08;96639.13;;;18.95;100.00
11936;BME280;6027;48.576;9.180;2022-08-27T02:52:34;96637.72;;;18.92;100.00
11936;BME280;6027;48.576;9.180;2022-08-27T02:55:00;96638.78;;;18.91;100.00
11936;BME280;6027;48.576;9.180;2022-08-27T02:57:26;96633.66;;;18.90;100.00
11936;BME280;6027;48.576;9.180;2022-08-27T02:59:52;96638.44;;;18.88;100.00
11936;BME280;6027;48.576;9.180;2022-08-27T03:02:18;96631.91;;;18.95;100.00
11936;BME280;6027;48.576;9.180;2022-08-27T03:04:45;96641.91;;;19.00;100.00
11936;BME280;6027;48.576;9.180;2022-08-27T03:07:11;96633.38;;;19.03;100.00
11936;BME280;6027;48.576;9.180;2022-08-27T03:09:37;96640.91;;;19.06;100.00
11936;BME280;6027;48.576;9.180;2022-08-27T03:12:03;96635.00;;;19.04;100.00
11936;BME280;6027;48.576;9.180;2022-08-27T03:14:29;96636.06;;;19.03;100.00
11936;BME280;6027;48.576;9.180;2022-08-27T03:16:55;96636.53;;;19.00;100.00
11936;BME280;6027;48.576;9.180;2022-08-27T03:19:42;96639.94;;;18.95;100.00
11936;BME280;6027;48.576;9.180;2022-08-27T03:22:08;96641.91;;;19.00;100.00
11936;BME280;6027;48.576;9.180;2022-08-27T03:24:34;96634.34;;;18.97;100.00
11936;BME280;6027;48.576;9.180;2022-08-27T03:26:59;96639.22;;;19.00;100.00
11936;BME280;6027;48.576;9.180;2022-08-27T03:29:25;96636.78;;;18.98;100.00
11936;BME280;6027;48.576;9.180;2022-08-27T03:31:51;96632.94;;;18.94;100.00
11936;BME280;6027;48.576;9.180;2022-08-27T03:34:16;96625.03;;;18.88;100.00
11936;BME280;6027;48.576;9.180;2022-08-27T03:36:43;96619.78;;;18.93;100.00
11936;BME280;6027;48.576;9.180;2022-08-27T03:39:08;96628.50;;;19.00;100.00
11936;BME280;6027;48.576;9.180;2022-08-27T03:41:34;96631.25;;;19.05;100.00
11936;BME280;6027;48.576;9.180;2022-08-27T03:43:59;96623.88;;;19.12;100.00
11936;BME280;6027;48.576;9.180;2022-08-27T03:46:25;96623.88;;;19.12;100.00
11936;BME280;6027;48.576;9.180;2022-08-27T03:48:54;96629.38;;;19.06;100.00
11936;BME280;6027;48.576;9.180;2022-08-27T03:51:20;96636.13;;;19.08;100.00
11936;BME280;6027;48.576;9.180;2022-08-27T03:53:46;96629.94;;;19.08;100.00
11936;BME280;6027;48.576;9.180;2022-08-27T03:56:12;96623.88;;;19.12;100.00
11936;BME280;6027;48.576;9.180;2022-08-27T03:58:39;96629.22;;;19.12;100.00
11936;BME280;6027;48.576;9.180;2022-08-27T04:01:05;96628.50;;;19.17;100.00
11936;BME280;6027;48.576;9.180;2022-08-27T04:03:31;96622.34;;;19.16;100.00
11936;BME280;6027;48.576;9.180;2022-08-27T04:05:57;96630.16;;;19.18;100.00
11936;BME280;6027;48.576;9.180;2022-08-27T04:08:23;96627.94;;;19.15;100.00
11936;BME280;6027;48.576;9.180;2022-08-27T04:10:49;96620.94;;;19.14;100.00
11936;BME280;6027;48.576;9.180;2022-08-27T04:13:15;96622.81;;;19.13;100.00
11936;BME280;6027;48.576;9.180;2022-08-27T04:15:43;96625.50;;;19.13;100.00
11936;BME280;6027;48.576;9.180;2022-08-27T04:18:09;96620.69;;;19.15;100.00
11936;BME280;6027;48.576;9.180;2022-08-27T04:20:36;96619.66;;;19.16;100.00
11936;BME280;6027;48.576;9.180;2022-08-27T04:23:02;96619.16;;;19.19;100.00
11936;BME280;6027;48.576;9.180;2022-08-27T04:25:27;96623.97;;;19.17;100.00
11936;BME280;6027;48.576;9.180;2022-08-27T04:27:53;96625.97;;;19.10;100.00
11936;BME280;6027;48.576;9.180;2022-08-27T04:30:19;96628.56;;;19.05;100.00
11936;BME280;6027;48.576;9.180;2022-08-27T04:32:44;96627.44;;;19.01;100.00
11936;BME280;6027;48.576;9.180;2022-08-27T04:35:10;96625.00;;;19.00;100.00
11936;BME280;6027;48.576;9.180;2022-08-27T04:37:36;96629.06;;;19.02;100.00
11936;BME280;6027;48.576;9.180;2022-08-27T04:40:03;96628.25;;;19.02;100.00
11936;BME280;6027;48.576;9.180;2022-08-27T04:42:29;96625.97;;;19.10;100.00
11936;BME280;6027;48.576;9.180;2022-08-27T04:44:55;96627.59;;;19.11;100.00
11936;BME280;6027;48.576;9.180;2022-08-27T04:47:21;96629.72;;;19.09;100.00
11936;BME280;6027;48.576;9.180;2022-08-27T04:49:46;96627.34;;;18.96;100.00
11936;BME280;6027;48.576;9.180;2022-08-27T04:52:12;96628.63;;;18.93;100.00
11936;BME280;6027;48.576;9.180;2022-08-27T04:54:37;96623.41;;;18.87;100.00
11936;BME280;6027;48.576;9.180;2022-08-27T04:57:06;96627.31;;;18.79;100.00
11936;BME280;6027;48.576;9.180;2022-08-27T04:59:33;96622.94;;;18.90;100.00
11936;BME280;6027;48.576;9.180;2022-08-27T05:02:00;96635.16;;;18.97;100.00
11936;BME280;6027;48.576;9.180;2022-08-27T05:04:26;96625.34;;;19.03;100.00
11936;BME280;6027;48.576;9.180;2022-08-27T05:06:53;96631.19;;;19.00;100.00
11936;BME280;6027;48.576;9.180;2022-08-27T05:11:46;96634.75;;;19.06;100.00
11936;BME280;6027;48.576;9.180;2022-08-27T05:14:14;96629.66;;;19.04;100.00
11936;BME280;6027;48.576;9.180;2022-08-27T05:16:40;96632.97;;;19.11;100.00
11936;BME280;6027;48.576;9.180;2022-08-27T05:19:09;96629.22;;;19.12;100.00
11936;BME280;6027;48.576;9.180;2022-08-27T05:21:37;96636.47;;;19.12;100.00
11936;BME280;6027;48.576;9.180;2022-08-27T05:24:05;96638.91;;;19.13;100.00
11936;BME280;6027;48.576;9.180;2022-08-27T05:26:33;96626.56;;;19.12;100.00
11936;BME280;6027;48.576;9.180;2022-08-27T05:28:59;96637.28;;;19.12;100.00
11936;BME280;6027;48.576;9.180;2022-08-27T05:31:25;96633.31;;;19.15;100.00
11936;BME280;6027;48.576;9.180;2022-08-27T05:33:51;96637.72;;;19.21;100.00
11936;BME280;6027;48.576;9.180;2022-08-27T05:36:23;96641.47;;;19.20;100.00
11936;BME280;6027;48.576;9.180;2022-08-27T05:38:51;96644.47;;;19.23;100.00
11936;BME280;6027;48.576;9.180;2022-08-27T05:41:20;96645.19;;;19.19;100.00
11936;BME280;6027;48.576;9.180;2022-08-27T05:43:47;96647.16;;;19.23;100.00
11936;BME280;6027;48.576;9.180;2022-08-27T05:46:15;96648.28;;;19.27;100.00
11936;BME280;6027;48.576;9.180;2022-08-27T05:48:41;96647.56;;;19.32;100.00
11936;BME280;6027;48.576;9.180;2022-08-27T05:51:20;96650.97;;;19.27;100.00
11936;BME280;6027;48.576;9.180;2022-08-27T05:53:46;96649.66;;;19.30;100.00
11936;BME280;6027;48.576;9.180;2022-08-27T05:58:38;96647.31;;;19.33;100.00
11936;BME280;6027;48.576;9.180;2022-08-27T06:01:22;96653.16;;;19.30;100.00
11936;BME280;6027;48.576;9.180;2022-08-27T06:03:48;96652.66;;;19.17;100.00
11936;BME280;6027;48.576;9.180;2022-08-27T06:06:17;96648.59;;;19.14;100.00
11936;BME280;6027;48.576;9.180;2022-08-27T06:08:43;96648.28;;;19.27;100.00
11936;BME280;6027;48.576;9.180;2022-08-27T06:11:09;96647.22;;;19.28;100.00
11936;BME280;6027;48.576;9.180;2022-08-27T06:13:36;96661.06;;;19.37;100.00
11936;BME280;6027;48.576;9.180;2022-08-27T06:18:27;96645.53;;;19.39;100.00
11936;BME280;6027;48.576;9.180;2022-08-27T06:20:53;96646.34;;;19.40;100.00
11936;BME280;6027;48.576;9.180;2022-08-27T06:23:18;96649.75;;;19.35;100.00
11936;BME280;6027;48.576;9.180;2022-08-27T06:25:44;96648.56;;;19.43;100.00
11936;BME280;6027;48.576;9.180;2022-08-27T06:28:11;96655.78;;;19.42;100.00
11936;BME280;6027;48.576;9.180;2022-08-27T06:30:37;96656.59;;;19.43;100.00
11936;BME280;6027;48.576;9.180;2022-08-27T06:33:03;96662.78;;;19.43;100.00
11936;BME280;6027;48.576;9.180;2022-08-27T06:35:28;96659.28;;;19.43;100.00
11936;BME280;6027;48.576;9.180;2022-08-27T06:37:54;96657.91;;;19.40;100.00
11936;BME280;6027;48.576;9.180;2022-08-27T06:40:22;96651.88;;;19.33;100.00
11936;BME280;6027;48.576;9.180;2022-08-27T06:42:49;96661.31;;;19.36;100.00
11936;BME280;6027;48.576;9.180;2022-08-27T06:45:14;96655.84;;;19.30;100.00
11936;BME280;6027;48.576;9.180;2022-08-27T06:47:40;96658.38;;;19.37;100.00
11936;BME280;6027;48.576;9.180;2022-08-27T06:50:06;96655.59;;;19.32;100.00
11936;BME280;6027;48.576;9.180;2022-08-27T06:52:31;96653.84;;;19.38;100.00
11936;BME280;6027;48.576;9.180;2022-08-27T06:54:57;96664.09;;;19.41;100.00
11936;BME280;6027;48.576;9.180;2022-08-27T06:57:22;96658.78;;;19.46;100.00
11936;BME280;6027;48.576;9.180;2022-08-27T06:59:49;96657.44;;;19.43;100.00
11936;BME280;6027;48.576;9.180;2022-08-27T07:02:15;96656.44;;;19.32;100.00
11936;BME280;6027;48.576;9.180;2022-08-27T07:04:41;96661.06;;;19.37;100.00
11936;BME280;6027;48.576;9.180;2022-08-27T07:07:10;96660.41;;;19.47;100.00
11936;BME280;6027;48.576;9.180;2022-08-27T07:09:38;96661.88;;;19.38;100.00
11936;BME280;6027;48.576;9.180;2022-08-27T07:12:04;96658.72;;;19.41;100.00
11936;BME280;6027;48.576;9.180;2022-08-27T07:14:31;96663.22;;;19.52;100.00
11936;BME280;6027;48.576;9.180;2022-08-27T07:16:56;96666.47;;;19.54;100.00
11936;BME280;6027;48.576;9.180;2022-08-27T07:19:22;96662.81;;;19.60;100.00
11936;BME280;6027;48.576;9.180;2022-08-27T07:21:47;96661.19;;;19.59;100.00
11936;BME280;6027;48.576;9.180;2022-08-27T07:24:13;96661.00;;;19.65;100.00
11936;BME280;6027;48.576;9.180;2022-08-27T07:26:41;96665.09;;;19.68;100.00
11936;BME280;6027;48.576;9.180;2022-08-27T07:29:10;96664.59;;;19.71;100.00
11936;BME280;6027;48.576;9.180;2022-08-27T07:31:36;96671.94;;;19.76;100.00
11936;BME280;6027;48.576;9.180;2022-08-27T07:34:03;96672.50;;;19.78;100.00
11936;BME280;6027;48.576;9.180;2022-08-27T07:36:30;96671.75;;;19.82;100.00
11936;BME280;6027;48.576;9.180;2022-08-27T07:38:56;96678.13;;;19.76;100.00
11936;BME280;6027;48.576;9.180;2022-08-27T07:41:21;96680.09;;;19.81;100.00
11936;BME280;6027;48.576;9.180;2022-08-27T07:43:47;96678.03;;;19.88;100.00
11936;BME280;6027;48.576;9.180;2022-08-27T07:46:31;96679.03;;;19.82;100.00
11936;BME280;6027;48.576;9.180;2022-08-27T07:48:57;96671.22;;;19.80;100.00
11936;BME280;6027;48.576;9.180;2022-08-27T07:51:25;96683.59;;;19.81;100.00
11936;BME280;6027;48.576;9.180;2022-08-27T07:53:51;96684.22;;;19.88;100.00
11936;BME280;6027;48.576;9.180;2022-08-27T07:56:19;96685.94;;;19.94;100.00
11936;BME280;6027;48.576;9.180;2022-08-27T07:58:45;96688.53;;;19.89;100.00
11936;BME280;6027;48.576;9.180;2022-08-27T08:01:11;96694.56;;;19.96;100.00
11936;BME280;6027;48.576;9.180;2022-08-27T08:03:38;96697.56;;;20.00;100.00
11936;BME280;6027;48.576;9.180;2022-08-27T08:06:07;96684.69;;;20.02;100.00
11936;BME280;6027;48.576;9.180;2022-08-27T08:08:34;96691.44;;;20.05;100.00
11936;BME280;6027;48.576;9.180;2022-08-27T08:11:00;96691.44;;;20.05;100.00
11936;BME280;6027;48.576;9.180;2022-08-27T08:13:27;96692.50;;;20.04;100.00
11936;BME280;6027;48.576;9.180;2022-08-27T08:15:53;96689.56;;;20.05;100.00
11936;BME280;6027;48.576;9.180;2022-08-27T08:18:18;96690.94;;;20.08;100.00
11936;BME280;6027;48.576;9.180;2022-08-27T08:20:44;96692.81;;;20.07;100.00
11936;BME280;6027;48.576;9.180;2022-08-27T08:23:09;96695.25;;;20.09;100.00
11936;BME280;6027;48.576;9.180;2022-08-27T08:25:35;96693.47;;;20.14;100.00
11936;BME280;6027;48.576;9.180;2022-08-27T08:28:00;96696.06;;;20.09;100.00
11936;BME280;6027;48.576;9.180;2022-08-27T08:30:26;96700.06;;;20.07;100.00
11936;BME280;6027;48.576;9.180;2022-08-27T08:32:52;96696.91;;;20.10;100.00
11936;BME280;6027;48.576;9.180;2022-08-27T08:35:18;96702.03;;;20.11;100.00
11936;BME280;6027;48.576;9.180;2022-08-27T08:42:54;96706.22;;;20.24;100.00
11936;BME280;6027;48.576;9.180;2022-08-27T08:45:27;96707.25;;;20.18;100.00
11936;BME280;6027;48.576;9.180;2022-08-27T08:48:15;96708.34;;;20.22;100.00
11936;BME280;6027;48.576;9.180;2022-08-27T08:51:33;96713.66;;;20.17;100.00
11936;BME280;6027;48.576;9.180;2022-08-27T08:54:01;96710.88;;;20.28;100.00
11936;BME280;6027;48.576;9.180;2022-08-27T08:56:30;96709.50;;;20.26;100.00
11936;BME280;6027;48.576;9.180;2022-08-27T08:59:07;96713.25;;;20.25;100.00
11936;BME280;6027;48.576;9.180;2022-08-27T09:01:33;96714.88;;;20.26;100.00
11936;BME280;6027;48.576;9.180;2022-08-27T09:04:03;96718.03;;;20.23;100.00
11936;BME280;6027;48.576;9.180;2022-08-27T09:07:03;96719.66;;;20.24;100.00
11936;BME280;6027;48.576;9.180;2022-08-27T09:12:16;96722.84;;;20.21;100.00
11936;BME280;6027;48.576;9.180;2022-08-27T09:17:15;96715.34;;;20.23;100.00
11936;BME280;6027;48.576;9.180;2022-08-27T09:19:41;96719.19;;;20.27;100.00
11936;BME280;6027;48.576;9.180;2022-08-27T09:25:27;96717.63;;;20.31;100.00
11936;BME280;6027;48.576;9.180;2022-08-27T09:28:00;96715.88;;;20.37;100.00
11936;BME280;6027;48.576;9.180;2022-08-27T09:30:29;96712.81;;;20.33;100.00
11936;BME280;6027;48.576;9.180;2022-08-27T09:33:01;96718.19;;;20.33;100.00
11936;BME280;6027;48.576;9.180;2022-08-27T09:35:38;96716.16;;;20.40;100.00
11936;BME280;6027;48.576;9.180;2022-08-27T09:38:05;96713.31;;;20.47;100.00
11936;BME280;6027;48.576;9.180;2022-08-27T09:40:37;96717.38;;;20.49;100.00
11936;BME280;6027;48.576;9.180;2022-08-27T09:43:20;96710.94;;;20.50;100.00
11936;BME280;6027;48.576;9.180;2022-08-27T09:45:52;96716.97;;;20.57;100.00
11936;BME280;6027;48.576;9.180;2022-08-27T09:48:30;96720.38;;;20.53;100.00
11936;BME280;6027;48.576;9.180;2022-08-27T09:50:59;96706.69;;;20.54;100.00
11936;BME280;6027;48.576;9.180;2022-08-27T09:53:34;96710.13;;;20.50;100.00
11936;BME280;6027;48.576;9.180;2022-08-27T09:56:05;96715.81;;;20.53;100.00
11936;BME280;6027;48.576;9.180;2022-08-27T09:58:52;96708.50;;;20.49;100.00
11936;BME280;6027;48.576;9.180;2022-08-27T10:01:23;96716.00;;;20.47;100.00
11936;BME280;6027;48.576;9.180;2022-08-27T10:04:06;96710.72;;;20.35;100.00
11936;BME280;6027;48.576;9.180;2022-08-27T10:06:32;96704.59;;;20.23;100.00
11936;BME280;6027;48.576;9.180;2022-08-27T10:09:09;96706.91;;;20.14;100.00
11936;BME280;6027;48.576;9.180;2022-08-27T10:11:50;96704.03;;;20.21;100.00
11936;BME280;6027;48.576;9.180;2022-08-27T10:14:25;96710.22;;;20.21;100.00
11936;BME280;6027;48.576;9.180;2022-08-27T10:17:22;96712.50;;;20.29;100.00
11936;BME280;6027;48.576;9.180;2022-08-27T10:28:05;96709.50;;;20.09;100.00
11936;BME280;6027;48.576;9.180;2022-08-27T10:35:46;96715.53;;;20.16;100.00
11936;BME280;6027;48.576;9.180;2022-08-27T10:44:10;96725.88;;;20.08;100.00
11936;BME280;6027;48.576;9.180;2022-08-27T10:49:43;96725.31;;;20.06;100.00
11936;BME280;6027;48.576;9.180;2022-08-27T10:52:22;96731.19;;;20.02;100.00
11936;BME280;6027;48.576;9.180;2022-08-27T10:54:59;96723.94;;;20.03;100.00
11936;BME280;6027;48.576;9.180;2022-08-27T11:00:19;96734.19;;;20.06;100.00
11936;BME280;6027;48.576;9.180;2022-08-27T11:05:23;96742.44;;;19.99;100.00
11936;BME280;6027;48.576;9.180;2022-08-27T11:10:29;96741.44;;;20.06;100.00
11936;BME280;6027;48.576;9.180;2022-08-27T11:13:05;96744.69;;;20.08;100.00
11936;BME280;6027;48.576;9.180;2022-08-27T11:15:35;96747.38;;;20.08;100.00
11936;BME280;6027;48.576;9.180;2022-08-27T11:18:43;96740.28;;;20.01;100.00
11936;BME280;6027;48.576;9.180;2022-08-27T11:23:47;96734.69;;;20.03;100.00
11936;BME280;6027;48.576;9.180;2022-08-27T11:26:14;96736.06;;;20.06;100.00
11936;BME280;6027;48.576;9.180;2022-08-27T11:28:43;96733.31;;;20.00;100.00
11936;BME280;6027;48.576;9.180;2022-08-27T11:33:55;96725.50;;;19.99;100.00
11936;BME280;6027;48.576;9.180;2022-08-27T11:36:44;96720.44;;;20.02;100.00
11936;BME280;6027;48.576;9.180;2022-08-27T11:42:34;96717.19;;;20.00;100.00
11936;BME280;6027;48.576;9.180;2022-08-27T11:45:07;96716.69;;;20.04;100.00
11936;BME280;6027;48.576;9.180;2022-08-27T11:47:36;96715.31;;;20.01;100.00
11936;BME280;6027;48.576;9.180;2022-08-27T11:50:06;96717.75;;;20.02;100.00
11936;BME280;6027;48.576;9.180;2022-08-27T11:52:52;96711.31;;;20.04;100.00
11936;BME280;6027;48.576;9.180;2022-08-27T11:57:48;96715.38;;;20.06;100.00
11936;BME280;6027;48.576;9.180;2022-08-27T12:02:59;96709.06;;;19.95;100.00
11936;BME280;6027;48.576;9.180;2022-08-27T12:26:59;96698.53;;;20.11;100.00
11936;BME280;6027;48.576;9.180;2022-08-27T12:32:30;96710.81;;;20.07;100.00
11936;BME280;6027;48.576;9.180;2022-08-27T12:37:43;96705.03;;;20.15;100.00
11936;BME280;6027;48.576;9.180;2022-08-27T12:40:25;96706.66;;;20.16;100.00
11936;BME280;6027;48.576;9.180;2022-08-27T12:43:06;96708.06;;;20.18;100.00
11936;BME280;6027;48.576;9.180;2022-08-27T12:45:33;96700.63;;;20.09;100.00
11936;BME280;6027;48.576;9.180;2022-08-27T12:48:07;96702.59;;;20.13;100.00
11936;BME280;6027;48.576;9.180;2022-08-27T12:50:33;96704.56;;;20.18;100.00
11936;BME280;6027;48.576;9.180;2022-08-27T12:53:11;96702.44;;;20.20;100.00
11936;BME280;6027;48.576;9.180;2022-08-27T13:01:24;96709.97;;;20.23;100.00
11936;BME280;6027;48.576;9.180;2022-08-27T13:03:54;96707.03;;;20.24;100.00
11936;BME280;6027;48.576;9.180;2022-08-27T13:06:43;96709.81;;;20.29;100.00
11936;BME280;6027;48.576;9.180;2022-08-27T13:09:09;96717.47;;;20.21;100.00
11936;BME280;6027;48.576;9.180;2022-08-27T13:11:47;96713.72;;;20.22;100.00
11936;BME280;6027;48.576;9.180;2022-08-27T13:14:18;96709.94;;;20.18;100.00
11936;BME280;6027;48.576;9.180;2022-08-27T13:16:57;96715.19;;;20.29;100.00
11936;BME280;6027;48.576;9.180;2022-08-27T13:22:37;96724.34;;;20.12;100.00
11936;BME280;6027;48.576;9.180;2022-08-27T13:25:05;96704.22;;;20.14;100.00
11936;BME280;6027;48.576;9.180;2022-08-27T13:27:34;96707.72;;;20.15;100.00
11936;BME280;6027;48.576;9.180;2022-08-27T13:30:09;96701.22;;;20.11;100.00
11936;BME280;6027;48.576;9.180;2022-08-27T13:32:36;96713.25;;;20.08;100.00
11936;BME280;6027;48.576;9.180;2022-08-27T13:35:02;96709.94;;;20.18;100.00
11936;BME280;6027;48.576;9.180;2022-08-27T13:37:40;96717.34;;;20.11;100.00
11936;BME280;6027;48.576;9.180;2022-08-27T13:40:08;96723.13;;;20.19;100.00
11936;BME280;6027;48.576;9.180;2022-08-27T13:42:38;96728.22;;;20.21;100.00
11936;BME280;6027;48.576;9.180;2022-08-27T13:45:06;96719.91;;;20.22;100.00
11936;BME280;6027;48.576;9.180;2022-08-27T13:47:40;96731.47;;;20.23;100.00
11936;BME280;6027;48.576;9.180;2022-08-27T13:50:19;96726.63;;;20.20;100.00
11936;BME280;6027;48.576;9.180;2022-08-27T13:52:45;96721.41;;;20.13;100.00
11936;BME280;6027;48.576;9.180;2022-08-27T13:55:29;96725.00;;;20.19;100.00
11936;BME280;6027;48.576;9.180;2022-08-27T13:57:55;96726.94;;;20.07;100.00
11936;BME280;6027;48.576;9.180;2022-08-27T14:00:28;96722.88;;;20.04;100.00
11936;BME280;6027;48.576;9.180;2022-08-27T14:02:54;96717.75;;;20.19;100.00
11936;BME280;6027;48.576;9.180;2022-08-27T14:07:49;96724.44;;;20.17;100.00
11936;BME280;6027;48.576;9.180;2022-08-27T14:12:43;96706.81;;;20.26;100.00
11936;BME280;6027;48.576;9.180;2022-08-27T14:15:37;96699.78;;;20.25;100.00
11936;BME280;6027;48.576;9.180;2022-08-27T14:18:06;96699.78;;;20.25;100.00
11936;BME280;6027;48.576;9.180;2022-08-27T14:20:33;96700.69;;;20.30;100.00
11936;BME280;6027;48.576;9.180;2022-08-27T14:22:59;96691.97;;;20.23;100.00
11936;BME280;6027;48.576;9.180;2022-08-27T14:25:25;96700.22;;;20.17;100.00
11936;BME280;6027;48.576;9.180;2022-08-27T14:27:52;96697.44;;;20.28;100.00
11936;BME280;6027;48.576;9.180;2022-08-27T14:30:21;96693.19;;;20.32;100.00
11936;BME280;6027;48.576;9.180;2022-08-27T14:32:47;96699.13;;;20.34;100.00
11936;BME280;6027;48.576;9.180;2022-08-27T14:35:14;96691.72;;;20.25;100.00
11936;BME280;6027;48.576;9.180;2022-08-27T14:37:41;96691.94;;;20.18;100.00
11936;BME280;6027;48.576;9.180;2022-08-27T14:40:08;96685.94;;;20.33;100.00
11936;BME280;6027;48.576;9.180;2022-08-27T14:42:35;96691.16;;;20.23;100.00
11936;BME280;6027;48.576;9.180;2022-08-27T14:45:01;96685.44;;;20.36;100.00
11936;BME280;6027;48.576;9.180;2022-08-27T14:47:27;96692.13;;;20.33;100.00
11936;BME280;6027;48.576;9.180;2022-08-27T14:49:53;96693.50;;;20.36;100.00
11936;BME280;6027;48.576;9.180;2022-08-27T14:52:19;96696.81;;;20.38;100.00
11936;BME280;6027;48.576;9.180;2022-08-27T14:54:44;96699.78;;;20.42;100.00